sensor_id;sensor_type;location;lat;lon;timestamp;P1;durP1;ratioP1;P2;durP2;ratioP2
6223;SDS011;3145;42.726;23.342;2024-01-30T00:01:06;10.50;;;9.50;;
6223;SDS011;3145;42.726;23.342;2024-01-30T00:03:33;8.97;;;8.27;;
6223;SDS011;3145;42.726;23.342;2024-01-30T00:06:00;9.77;;;8.87;;
6223;SDS011;3145;42.726;23.342;2024-01-30T00:08:29;12.13;;;10.97;;
6223;SDS011;3145;42.726;23.342;2024-01-30T00:10:56;15.40;;;13.00;;
6223;SDS011;3145;42.726;23.342;2024-01-30T00:13:23;18.50;;;12.07;;
6223;SDS011;3145;42.726;23.342;2024-01-30T00:15:49;11.97;;;10.40;;
6223;SDS011;3145;42.726;23.342;2024-01-30T00:18:16;11.70;;;10.60;;
6223;SDS011;3145;42.726;23.342;2024-01-30T00:20:43;9.70;;;8.80;;
6223;SDS011;3145;42.726;23.342;2024-01-30T00:23:10;10.30;;;9.50;;
6223;SDS011;3145;42.726;23.342;2024-01-30T00:25:38;10.93;;;9.83;;
6223;SDS011;3145;42.726;23.342;2024-01-30T00:28:05;16.53;;;13.37;;
6223;SDS011;3145;42.726;23.342;2024-01-30T00:30:32;13.97;;;12.60;;
6223;SDS011;3145;42.726;23.342;2024-01-30T00:32:58;16.00;;;13.60;;
6223;SDS011;3145;42.726;23.342;2024-01-30T00:35:25;11.07;;;9.87;;
6223;SDS011;3145;42.726;23.342;2024-01-30T00:37:52;10.03;;;9.13;;
6223;SDS011;3145;42.726;23.342;2024-01-30T00:40:18;8.87;;;8.07;;
6223;SDS011;3145;42.726;23.342;2024-01-30T00:42:47;9.90;;;8.90;;
6223;SDS011;3145;42.726;23.342;2024-01-30T00:45:13;9.67;;;8.83;;
6223;SDS011;3145;42.726;23.342;2024-01-30T00:47:40;11.60;;;10.37;;
6223;SDS011;3145;42.726;23.342;2024-01-30T00:50:07;14.03;;;11.30;;
6223;SDS011;3145;42.726;23.342;2024-01-30T00:52:34;19.20;;;14.10;;
6223;SDS011;3145;42.726;23.342;2024-01-30T00:55:01;22.30;;;15.13;;
6223;SDS011;3145;42.726;23.342;2024-01-30T00:57:28;29.87;;;18.63;;
6223;SDS011;3145;42.726;23.342;2024-01-30T00:59:56;19.30;;;15.37;;
6223;SDS011;3145;42.726;23.342;2024-01-30T01:02:23;15.00;;;11.97;;
6223;SDS011;3145;42.726;23.342;2024-01-30T01:04:50;12.33;;;11.13;;
6223;SDS011;3145;42.726;23.342;2024-01-30T01:07:19;18.00;;;12.77;;
6223;SDS011;3145;42.726;23.342;2024-01-30T01:09:46;13.83;;;12.30;;
6223;SDS011;3145;42.726;23.342;2024-01-30T01:12:12;15.83;;;12.73;;
6223;SDS011;3145;42.726;23.342;2024-01-30T01:14:38;13.70;;;12.37;;
6223;SDS011;3145;42.726;23.342;2024-01-30T01:17:06;16.97;;;12.87;;
6223;SDS011;3145;42.726;23.342;2024-01-30T01:19:33;14.07;;;11.97;;
6223;SDS011;3145;42.726;23.342;2024-01-30T01:22:00;18.97;;;12.33;;
6223;SDS011;3145;42.726;23.342;2024-01-30T01:24:28;14.37;;;13.07;;
6223;SDS011;3145;42.726;23.342;2024-01-30T01:26:55;13.77;;;11.87;;
6223;SDS011;3145;42.726;23.342;2024-01-30T01:29:22;13.67;;;12.43;;
6223;SDS011;3145;42.726;23.342;2024-01-30T01:31:53;13.17;;;11.77;;
6223;SDS011;3145;42.726;23.342;2024-01-30T01:34:22;14.03;;;12.63;;
6223;SDS011;3145;42.726;23.342;2024-01-30T01:36:49;14.70;;;12.93;;
6223;SDS011;3145;42.726;23.342;2024-01-30T01:39:16;10.37;;;9.53;;
6223;SDS011;3145;42.726;23.342;2024-01-30T01:41:43;10.50;;;9.50;;
6223;SDS011;3145;42.726;23.342;2024-01-30T01:44:09;11.50;;;10.50;;
6223;SDS011;3145;42.726;23.342;2024-01-30T01:46:36;11.20;;;10.20;;
6223;SDS011;3145;42.726;23.342;2024-01-30T01:49:04;10.33;;;9.43;;
6223;SDS011;3145;42.726;23.342;2024-01-30T01:51:33;10.50;;;9.60;;
6223;SDS011;3145;42.726;23.342;2024-01-30T01:54:03;9.93;;;8.93;;
6223;SDS011;3145;42.726;23.342;2024-01-30T01:56:30;11.63;;;10.43;;
6223;SDS011;3145;42.726;23.342;2024-01-30T01:58:59;10.90;;;9.73;;
6223;SDS011;3145;42.726;23.342;2024-01-30T02:01:31;9.50;;;8.77;;
6223;SDS011;3145;42.726;23.342;2024-01-30T02:03:59;9.90;;;9.07;;
6223;SDS011;3145;42.726;23.342;2024-01-30T02:06:26;10.00;;;9.10;;
6223;SDS011;3145;42.726;23.342;2024-01-30T02:08:54;9.53;;;8.73;;
6223;SDS011;3145;42.726;23.342;2024-01-30T02:11:21;8.03;;;7.43;;
6223;SDS011;3145;42.726;23.342;2024-01-30T02:13:49;8.77;;;8.03;;
6223;SDS011;3145;42.726;23.342;2024-01-30T02:16:16;7.60;;;7.10;;
6223;SDS011;3145;42.726;23.342;2024-01-30T02:18:43;9.50;;;8.77;;
6223;SDS011;3145;42.726;23.342;2024-01-30T02:21:13;9.20;;;8.40;;
6223;SDS011;3145;42.726;23.342;2024-01-30T02:23:41;9.07;;;8.27;;
6223;SDS011;3145;42.726;23.342;2024-01-30T02:26:09;10.17;;;9.20;;
6223;SDS011;3145;42.726;23.342;2024-01-30T02:28:36;10.03;;;9.07;;
6223;SDS011;3145;42.726;23.342;2024-01-30T02:31:03;9.97;;;8.87;;
6223;SDS011;3145;42.726;23.342;2024-01-30T02:33:30;11.10;;;9.60;;
6223;SDS011;3145;42.726;23.342;2024-01-30T02:35:57;9.33;;;8.53;;
6223;SDS011;3145;42.726;23.342;2024-01-30T02:38:25;10.80;;;9.53;;
6223;SDS011;3145;42.726;23.342;2024-01-30T02:40:53;10.00;;;9.13;;
6223;SDS011;3145;42.726;23.342;2024-01-30T02:43:20;10.07;;;9.10;;
6223;SDS011;3145;42.726;23.342;2024-01-30T02:45:47;10.90;;;9.80;;
6223;SDS011;3145;42.726;23.342;2024-01-30T02:48:14;11.13;;;10.10;;
6223;SDS011;3145;42.726;23.342;2024-01-30T02:50:40;10.37;;;8.97;;
6223;SDS011;3145;42.726;23.342;2024-01-30T02:53:08;10.33;;;9.37;;
6223;SDS011;3145;42.726;23.342;2024-01-30T02:55:36;11.83;;;9.70;;
6223;SDS011;3145;42.726;23.342;2024-01-30T02:58:03;11.27;;;10.20;;
6223;SDS011;3145;42.726;23.342;2024-01-30T03:00:30;11.33;;;10.13;;
6223;SDS011;3145;42.726;23.342;2024-01-30T03:02:56;10.10;;;9.10;;
6223;SDS011;3145;42.726;23.342;2024-01-30T03:05:23;10.13;;;9.27;;
6223;SDS011;3145;42.726;23.342;2024-01-30T03:07:50;9.03;;;8.23;;
6223;SDS011;3145;42.726;23.342;2024-01-30T03:10:16;8.30;;;7.63;;
6223;SDS011;3145;42.726;23.342;2024-01-30T03:12:45;9.17;;;8.47;;
6223;SDS011;3145;42.726;23.342;2024-01-30T03:15:12;7.30;;;6.80;;
6223;SDS011;3145;42.726;23.342;2024-01-30T03:17:38;9.03;;;8.27;;
6223;SDS011;3145;42.726;23.342;2024-01-30T03:20:05;8.30;;;7.57;;
6223;SDS011;3145;42.726;23.342;2024-01-30T03:22:33;9.30;;;8.33;;
6223;SDS011;3145;42.726;23.342;2024-01-30T03:25:00;7.60;;;7.00;;
6223;SDS011;3145;42.726;23.342;2024-01-30T03:27:26;8.30;;;7.70;;
6223;SDS011;3145;42.726;23.342;2024-01-30T03:29:55;7.53;;;6.83;;
6223;SDS011;3145;42.726;23.342;2024-01-30T03:32:22;9.17;;;8.23;;
6223;SDS011;3145;42.726;23.342;2024-01-30T03:34:48;10.07;;;7.27;;
6223;SDS011;3145;42.726;23.342;2024-01-30T03:37:15;8.10;;;7.40;;
6223;SDS011;3145;42.726;23.342;2024-01-30T03:39:42;8.53;;;7.73;;
6223;SDS011;3145;42.726;23.342;2024-01-30T03:42:08;9.10;;;8.20;;
6223;SDS011;3145;42.726;23.342;2024-01-30T03:44:35;8.93;;;8.23;;
6223;SDS011;3145;42.726;23.342;2024-01-30T03:47:03;8.93;;;8.33;;
6223;SDS011;3145;42.726;23.342;2024-01-30T03:49:30;11.30;;;10.27;;
6223;SDS011;3145;42.726;23.342;2024-01-30T03:51:57;10.17;;;9.13;;
6223;SDS011;3145;42.726;23.342;2024-01-30T03:54:23;9.53;;;8.57;;
6223;SDS011;3145;42.726;23.342;2024-01-30T03:56:50;8.80;;;8.07;;
6223;SDS011;3145;42.726;23.342;2024-01-30T03:59:17;10.77;;;9.77;;
6223;SDS011;3145;42.726;23.342;2024-01-30T04:01:49;10.70;;;9.67;;
6223;SDS011;3145;42.726;23.342;2024-01-30T04:04:17;33.97;;;19.20;;
6223;SDS011;3145;42.726;23.342;2024-01-30T04:06:44;25.83;;;16.37;;
6223;SDS011;3145;42.726;23.342;2024-01-30T04:09:10;158.33;;;62.87;;
6223;SDS011;3145;42.726;23.342;2024-01-30T04:11:38;85.43;;;39.23;;
6223;SDS011;3145;42.726;23.342;2024-01-30T04:14:04;224.97;;;90.73;;
6223;SDS011;3145;42.726;23.342;2024-01-30T04:16:31;199.57;;;82.00;;
6223;SDS011;3145;42.726;23.342;2024-01-30T04:18:58;171.33;;;66.07;;
6223;SDS011;3145;42.726;23.342;2024-01-30T04:21:26;127.87;;;52.90;;
6223;SDS011;3145;42.726;23.342;2024-01-30T04:23:53;75.93;;;36.93;;
6223;SDS011;3145;42.726;23.342;2024-01-30T04:26:19;45.83;;;25.93;;
6223;SDS011;3145;42.726;23.342;2024-01-30T04:28:46;147.17;;;58.03;;
6223;SDS011;3145;42.726;23.342;2024-01-30T04:31:13;80.90;;;42.33;;
6223;SDS011;3145;42.726;23.342;2024-01-30T04:33:39;87.40;;;41.27;;
6223;SDS011;3145;42.726;23.342;2024-01-30T04:36:08;28.47;;;13.43;;
6223;SDS011;3145;42.726;23.342;2024-01-30T04:38:37;24.90;;;15.87;;
6223;SDS011;3145;42.726;23.342;2024-01-30T04:41:04;7.37;;;6.87;;
6223;SDS011;3145;42.726;23.342;2024-01-30T04:43:31;14.80;;;11.80;;
6223;SDS011;3145;42.726;23.342;2024-01-30T04:45:57;13.03;;;10.80;;
6223;SDS011;3145;42.726;23.342;2024-01-30T04:48:24;12.30;;;9.70;;
6223;SDS011;3145;42.726;23.342;2024-01-30T04:50:51;16.43;;;10.13;;
6223;SDS011;3145;42.726;23.342;2024-01-30T04:53:17;10.10;;;9.07;;
6223;SDS011;3145;42.726;23.342;2024-01-30T04:55:46;8.87;;;8.13;;
6223;SDS011;3145;42.726;23.342;2024-01-30T04:58:12;9.27;;;8.53;;
6223;SDS011;3145;42.726;23.342;2024-01-30T05:00:39;10.23;;;9.23;;
6223;SDS011;3145;42.726;23.342;2024-01-30T05:03:06;8.53;;;7.83;;
6223;SDS011;3145;42.726;23.342;2024-01-30T05:05:32;7.43;;;6.93;;
6223;SDS011;3145;42.726;23.342;2024-01-30T05:07:59;7.77;;;7.30;;
6223;SDS011;3145;42.726;23.342;2024-01-30T05:10:26;9.27;;;8.57;;
6223;SDS011;3145;42.726;23.342;2024-01-30T05:12:55;9.87;;;8.97;;
6223;SDS011;3145;42.726;23.342;2024-01-30T05:15:22;11.13;;;10.17;;
6223;SDS011;3145;42.726;23.342;2024-01-30T05:17:48;20.23;;;14.60;;
6223;SDS011;3145;42.726;23.342;2024-01-30T05:20:16;13.73;;;12.40;;
6223;SDS011;3145;42.726;23.342;2024-01-30T05:22:42;12.90;;;11.53;;
6223;SDS011;3145;42.726;23.342;2024-01-30T05:25:10;12.30;;;11.00;;
6223;SDS011;3145;42.726;23.342;2024-01-30T05:27:36;21.30;;;15.70;;
6223;SDS011;3145;42.726;23.342;2024-01-30T05:30:04;17.33;;;11.10;;
6223;SDS011;3145;42.726;23.342;2024-01-30T05:32:32;21.30;;;13.70;;
6223;SDS011;3145;42.726;23.342;2024-01-30T05:34:59;23.13;;;15.03;;
6223;SDS011;3145;42.726;23.342;2024-01-30T05:37:25;20.70;;;16.17;;
6223;SDS011;3145;42.726;23.342;2024-01-30T05:39:52;12.80;;;11.13;;
6223;SDS011;3145;42.726;23.342;2024-01-30T05:42:19;14.67;;;12.43;;
6223;SDS011;3145;42.726;23.342;2024-01-30T05:44:45;15.30;;;10.90;;
6223;SDS011;3145;42.726;23.342;2024-01-30T05:47:13;10.57;;;9.57;;
6223;SDS011;3145;42.726;23.342;2024-01-30T05:49:40;11.47;;;9.13;;
6223;SDS011;3145;42.726;23.342;2024-01-30T05:52:07;12.23;;;10.33;;
6223;SDS011;3145;42.726;23.342;2024-01-30T05:54:34;8.93;;;8.23;;
6223;SDS011;3145;42.726;23.342;2024-01-30T05:57:01;9.73;;;7.03;;
6223;SDS011;3145;42.726;23.342;2024-01-30T05:59:28;8.73;;;7.93;;
6223;SDS011;3145;42.726;23.342;2024-01-30T06:01:55;9.33;;;8.57;;
6223;SDS011;3145;42.726;23.342;2024-01-30T06:04:23;8.73;;;7.83;;
6223;SDS011;3145;42.726;23.342;2024-01-30T06:06:50;8.47;;;7.80;;
6223;SDS011;3145;42.726;23.342;2024-01-30T06:09:16;8.87;;;8.17;;
6223;SDS011;3145;42.726;23.342;2024-01-30T06:11:43;7.60;;;7.00;;
6223;SDS011;3145;42.726;23.342;2024-01-30T06:14:10;9.73;;;9.03;;
6223;SDS011;3145;42.726;23.342;2024-01-30T06:16:36;12.57;;;10.90;;
6223;SDS011;3145;42.726;23.342;2024-01-30T06:19:03;11.97;;;10.87;;
6223;SDS011;3145;42.726;23.342;2024-01-30T06:21:32;11.40;;;10.37;;
6223;SDS011;3145;42.726;23.342;2024-01-30T06:24:01;15.20;;;13.60;;
6223;SDS011;3145;42.726;23.342;2024-01-30T06:26:28;14.97;;;12.60;;
6223;SDS011;3145;42.726;23.342;2024-01-30T06:28:55;25.90;;;17.77;;
6223;SDS011;3145;42.726;23.342;2024-01-30T06:31:21;23.10;;;16.53;;
6223;SDS011;3145;42.726;23.342;2024-01-30T06:33:48;18.27;;;13.53;;
6223;SDS011;3145;42.726;23.342;2024-01-30T06:36:16;7.13;;;6.63;;
6223;SDS011;3145;42.726;23.342;2024-01-30T06:38:44;6.30;;;6.00;;
6223;SDS011;3145;42.726;23.342;2024-01-30T06:41:11;7.57;;;6.93;;
6223;SDS011;3145;42.726;23.342;2024-01-30T06:43:38;8.30;;;7.60;;
6223;SDS011;3145;42.726;23.342;2024-01-30T06:46:04;7.37;;;6.87;;
6223;SDS011;3145;42.726;23.342;2024-01-30T06:48:31;7.83;;;7.33;;
6223;SDS011;3145;42.726;23.342;2024-01-30T06:50:58;7.63;;;7.10;;
6223;SDS011;3145;42.726;23.342;2024-01-30T06:53:24;8.10;;;7.50;;
6223;SDS011;3145;42.726;23.342;2024-01-30T06:55:53;9.37;;;7.13;;
6223;SDS011;3145;42.726;23.342;2024-01-30T06:58:19;9.57;;;8.67;;
6223;SDS011;3145;42.726;23.342;2024-01-30T07:00:46;13.47;;;10.27;;
6223;SDS011;3145;42.726;23.342;2024-01-30T07:03:13;19.37;;;13.03;;
6223;SDS011;3145;42.726;23.342;2024-01-30T07:05:39;27.27;;;16.50;;
6223;SDS011;3145;42.726;23.342;2024-01-30T07:08:06;21.73;;;13.43;;
6223;SDS011;3145;42.726;23.342;2024-01-30T07:10:33;20.93;;;14.93;;
6223;SDS011;3145;42.726;23.342;2024-01-30T07:13:01;19.00;;;13.57;;
6223;SDS011;3145;42.726;23.342;2024-01-30T07:15:29;14.13;;;11.33;;
6223;SDS011;3145;42.726;23.342;2024-01-30T07:17:56;26.20;;;14.50;;
6223;SDS011;3145;42.726;23.342;2024-01-30T07:20:22;17.90;;;12.00;;
6223;SDS011;3145;42.726;23.342;2024-01-30T07:22:49;10.20;;;9.17;;
6223;SDS011;3145;42.726;23.342;2024-01-30T07:25:16;9.00;;;8.17;;
6223;SDS011;3145;42.726;23.342;2024-01-30T07:27:43;11.13;;;9.77;;
6223;SDS011;3145;42.726;23.342;2024-01-30T07:30:11;14.00;;;11.70;;
6223;SDS011;3145;42.726;23.342;2024-01-30T07:32:38;12.37;;;11.10;;
6223;SDS011;3145;42.726;23.342;2024-01-30T07:35:05;14.10;;;11.33;;
6223;SDS011;3145;42.726;23.342;2024-01-30T07:37:32;5.70;;;5.17;;
6223;SDS011;3145;42.726;23.342;2024-01-30T07:39:59;7.70;;;7.07;;
6223;SDS011;3145;42.726;23.342;2024-01-30T07:42:26;6.63;;;6.03;;
6223;SDS011;3145;42.726;23.342;2024-01-30T07:44:52;8.50;;;7.67;;
6223;SDS011;3145;42.726;23.342;2024-01-30T07:47:20;6.70;;;6.10;;
6223;SDS011;3145;42.726;23.342;2024-01-30T07:49:47;12.20;;;9.03;;
6223;SDS011;3145;42.726;23.342;2024-01-30T07:52:14;7.40;;;6.63;;
6223;SDS011;3145;42.726;23.342;2024-01-30T07:54:49;7.63;;;7.03;;
6223;SDS011;3145;42.726;23.342;2024-01-30T07:57:16;8.17;;;7.53;;
6223;SDS011;3145;42.726;23.342;2024-01-30T07:59:43;9.10;;;8.20;;
6223;SDS011;3145;42.726;23.342;2024-01-30T08:02:11;12.30;;;8.57;;
6223;SDS011;3145;42.726;23.342;2024-01-30T08:04:40;7.73;;;7.13;;
6223;SDS011;3145;42.726;23.342;2024-01-30T08:07:06;7.30;;;6.57;;
6223;SDS011;3145;42.726;23.342;2024-01-30T08:09:33;8.23;;;7.07;;
6223;SDS011;3145;42.726;23.342;2024-01-30T08:12:00;8.23;;;6.57;;
6223;SDS011;3145;42.726;23.342;2024-01-30T08:14:26;11.07;;;9.50;;
6223;SDS011;3145;42.726;23.342;2024-01-30T08:16:53;8.40;;;6.13;;
6223;SDS011;3145;42.726;23.342;2024-01-30T08:19:20;6.83;;;6.27;;
6223;SDS011;3145;42.726;23.342;2024-01-30T08:21:48;7.93;;;7.40;;
6223;SDS011;3145;42.726;23.342;2024-01-30T08:24:15;16.23;;;8.87;;
6223;SDS011;3145;42.726;23.342;2024-01-30T08:26:42;8.30;;;7.63;;
6223;SDS011;3145;42.726;23.342;2024-01-30T08:29:08;8.67;;;7.90;;
6223;SDS011;3145;42.726;23.342;2024-01-30T08:31:35;16.20;;;9.43;;
6223;SDS011;3145;42.726;23.342;2024-01-30T08:34:02;8.07;;;7.47;;
6223;SDS011;3145;42.726;23.342;2024-01-30T08:36:28;10.00;;;8.53;;
6223;SDS011;3145;42.726;23.342;2024-01-30T08:38:56;8.33;;;7.63;;
6223;SDS011;3145;42.726;23.342;2024-01-30T08:41:23;7.03;;;6.40;;
6223;SDS011;3145;42.726;23.342;2024-01-30T08:43:50;8.03;;;7.43;;
6223;SDS011;3145;42.726;23.342;2024-01-30T08:46:18;6.57;;;6.17;;
6223;SDS011;3145;42.726;23.342;2024-01-30T08:48:50;7.43;;;6.87;;
6223;SDS011;3145;42.726;23.342;2024-01-30T08:51:17;6.83;;;6.30;;
6223;SDS011;3145;42.726;23.342;2024-01-30T08:53:43;15.03;;;10.67;;
6223;SDS011;3145;42.726;23.342;2024-01-30T08:56:11;9.87;;;8.17;;
6223;SDS011;3145;42.726;23.342;2024-01-30T08:58:38;6.63;;;6.13;;
6223;SDS011;3145;42.726;23.342;2024-01-30T09:01:05;8.07;;;7.57;;
6223;SDS011;3145;42.726;23.342;2024-01-30T09:03:32;7.47;;;6.87;;
6223;SDS011;3145;42.726;23.342;2024-01-30T09:05:59;7.93;;;7.23;;
6223;SDS011;3145;42.726;23.342;2024-01-30T09:08:25;12.13;;;10.03;;
6223;SDS011;3145;42.726;23.342;2024-01-30T09:10:52;9.57;;;8.77;;
6223;SDS011;3145;42.726;23.342;2024-01-30T09:13:20;8.83;;;5.43;;
6223;SDS011;3145;42.726;23.342;2024-01-30T09:15:47;6.40;;;5.80;;
6223;SDS011;3145;42.726;23.342;2024-01-30T09:18:13;7.17;;;6.77;;
6223;SDS011;3145;42.726;23.342;2024-01-30T09:20:40;7.37;;;6.87;;
6223;SDS011;3145;42.726;23.342;2024-01-30T09:23:07;6.60;;;6.10;;
6223;SDS011;3145;42.726;23.342;2024-01-30T09:25:34;6.23;;;5.83;;
6223;SDS011;3145;42.726;23.342;2024-01-30T09:28:00;5.50;;;5.10;;
6223;SDS011;3145;42.726;23.342;2024-01-30T09:30:28;7.53;;;6.60;;
6223;SDS011;3145;42.726;23.342;2024-01-30T09:32:55;7.03;;;5.83;;
6223;SDS011;3145;42.726;23.342;2024-01-30T09:35:22;7.93;;;7.30;;
6223;SDS011;3145;42.726;23.342;2024-01-30T09:37:48;8.07;;;7.37;;
6223;SDS011;3145;42.726;23.342;2024-01-30T09:40:16;5.63;;;5.17;;
6223;SDS011;3145;42.726;23.342;2024-01-30T09:42:44;7.10;;;6.67;;
6223;SDS011;3145;42.726;23.342;2024-01-30T09:45:13;5.30;;;5.00;;
6223;SDS011;3145;42.726;23.342;2024-01-30T09:47:42;5.50;;;5.20;;
6223;SDS011;3145;42.726;23.342;2024-01-30T09:50:10;6.17;;;5.57;;
6223;SDS011;3145;42.726;23.342;2024-01-30T09:52:37;5.37;;;5.07;;
6223;SDS011;3145;42.726;23.342;2024-01-30T09:55:04;5.73;;;5.17;;
6223;SDS011;3145;42.726;23.342;2024-01-30T09:57:32;5.97;;;5.57;;
6223;SDS011;3145;42.726;23.342;2024-01-30T09:59:59;7.33;;;6.77;;
6223;SDS011;3145;42.726;23.342;2024-01-30T10:02:25;5.97;;;5.50;;
6223;SDS011;3145;42.726;23.342;2024-01-30T10:04:53;7.20;;;5.47;;
6223;SDS011;3145;42.726;23.342;2024-01-30T10:07:20;7.63;;;6.83;;
6223;SDS011;3145;42.726;23.342;2024-01-30T10:09:48;5.47;;;5.17;;
6223;SDS011;3145;42.726;23.342;2024-01-30T10:12:15;6.00;;;5.63;;
6223;SDS011;3145;42.726;23.342;2024-01-30T10:14:42;8.57;;;5.97;;
6223;SDS011;3145;42.726;23.342;2024-01-30T10:17:09;6.83;;;6.27;;
6223;SDS011;3145;42.726;23.342;2024-01-30T10:19:37;6.53;;;5.93;;
6223;SDS011;3145;42.726;23.342;2024-01-30T10:22:05;6.03;;;5.70;;
6223;SDS011;3145;42.726;23.342;2024-01-30T10:24:33;6.43;;;5.93;;
6223;SDS011;3145;42.726;23.342;2024-01-30T10:27:00;9.07;;;8.33;;
6223;SDS011;3145;42.726;23.342;2024-01-30T10:29:27;11.17;;;8.13;;
6223;SDS011;3145;42.726;23.342;2024-01-30T10:31:57;6.00;;;5.60;;
6223;SDS011;3145;42.726;23.342;2024-01-30T10:34:25;5.80;;;5.50;;
6223;SDS011;3145;42.726;23.342;2024-01-30T10:36:54;5.63;;;5.33;;
6223;SDS011;3145;42.726;23.342;2024-01-30T10:39:28;5.90;;;5.40;;
6223;SDS011;3145;42.726;23.342;2024-01-30T10:41:56;5.63;;;5.27;;
6223;SDS011;3145;42.726;23.342;2024-01-30T10:44:29;6.47;;;6.07;;
6223;SDS011;3145;42.726;23.342;2024-01-30T10:47:02;7.03;;;6.53;;
6223;SDS011;3145;42.726;23.342;2024-01-30T10:49:33;19.50;;;14.97;;
6223;SDS011;3145;42.726;23.342;2024-01-30T10:52:00;11.03;;;10.03;;
6223;SDS011;3145;42.726;23.342;2024-01-30T10:54:28;9.20;;;8.40;;
6223;SDS011;3145;42.726;23.342;2024-01-30T10:56:57;6.53;;;6.23;;
6223;SDS011;3145;42.726;23.342;2024-01-30T10:59:27;5.60;;;5.30;;
6223;SDS011;3145;42.726;23.342;2024-01-30T11:01:56;6.67;;;6.27;;
6223;SDS011;3145;42.726;23.342;2024-01-30T11:04:23;8.60;;;7.40;;
6223;SDS011;3145;42.726;23.342;2024-01-30T11:06:50;6.10;;;5.60;;
6223;SDS011;3145;42.726;23.342;2024-01-30T11:09:17;6.17;;;5.87;;
6223;SDS011;3145;42.726;23.342;2024-01-30T11:11:50;5.53;;;5.23;;
6223;SDS011;3145;42.726;23.342;2024-01-30T11:14:22;6.67;;;6.20;;
6223;SDS011;3145;42.726;23.342;2024-01-30T11:16:50;7.03;;;6.60;;
6223;SDS011;3145;42.726;23.342;2024-01-30T11:19:22;9.37;;;8.57;;
6223;SDS011;3145;42.726;23.342;2024-01-30T11:21:50;7.53;;;6.93;;
6223;SDS011;3145;42.726;23.342;2024-01-30T11:24:19;7.60;;;7.00;;
6223;SDS011;3145;42.726;23.342;2024-01-30T11:26:48;9.30;;;6.90;;
6223;SDS011;3145;42.726;23.342;2024-01-30T11:29:17;6.80;;;6.40;;
6223;SDS011;3145;42.726;23.342;2024-01-30T11:31:54;7.30;;;6.50;;
6223;SDS011;3145;42.726;23.342;2024-01-30T11:34:21;6.63;;;6.03;;
6223;SDS011;3145;42.726;23.342;2024-01-30T11:36:51;9.60;;;8.77;;
6223;SDS011;3145;42.726;23.342;2024-01-30T11:39:24;8.20;;;7.60;;
6223;SDS011;3145;42.726;23.342;2024-01-30T11:41:51;8.13;;;7.43;;
6223;SDS011;3145;42.726;23.342;2024-01-30T11:44:20;7.63;;;7.20;;
6223;SDS011;3145;42.726;23.342;2024-01-30T11:46:47;8.27;;;7.57;;
6223;SDS011;3145;42.726;23.342;2024-01-30T11:49:14;7.03;;;6.63;;
6223;SDS011;3145;42.726;23.342;2024-01-30T11:51:41;8.00;;;7.27;;
6223;SDS011;3145;42.726;23.342;2024-01-30T11:54:08;9.10;;;8.30;;
6223;SDS011;3145;42.726;23.342;2024-01-30T11:56:36;6.30;;;5.70;;
6223;SDS011;3145;42.726;23.342;2024-01-30T11:59:03;8.83;;;8.03;;
6223;SDS011;3145;42.726;23.342;2024-01-30T12:01:31;6.93;;;6.50;;
6223;SDS011;3145;42.726;23.342;2024-01-30T12:03:59;6.30;;;5.80;;
6223;SDS011;3145;42.726;23.342;2024-01-30T12:06:26;7.03;;;6.53;;
6223;SDS011;3145;42.726;23.342;2024-01-30T12:08:59;6.80;;;6.13;;
6223;SDS011;3145;42.726;23.342;2024-01-30T12:11:29;6.90;;;6.40;;
6223;SDS011;3145;42.726;23.342;2024-01-30T12:13:56;6.23;;;5.83;;
6223;SDS011;3145;42.726;23.342;2024-01-30T12:16:23;8.23;;;7.47;;
6223;SDS011;3145;42.726;23.342;2024-01-30T12:18:58;8.87;;;7.43;;
6223;SDS011;3145;42.726;23.342;2024-01-30T12:21:25;9.57;;;6.97;;
6223;SDS011;3145;42.726;23.342;2024-01-30T12:23:52;6.97;;;6.30;;
6223;SDS011;3145;42.726;23.342;2024-01-30T12:26:19;6.80;;;6.30;;
6223;SDS011;3145;42.726;23.342;2024-01-30T12:28:48;6.83;;;6.33;;
6223;SDS011;3145;42.726;23.342;2024-01-30T12:31:15;7.00;;;6.50;;
6223;SDS011;3145;42.726;23.342;2024-01-30T12:33:42;7.20;;;6.67;;
6223;SDS011;3145;42.726;23.342;2024-01-30T12:36:11;6.90;;;6.30;;
6223;SDS011;3145;42.726;23.342;2024-01-30T12:38:38;9.87;;;8.70;;
6223;SDS011;3145;42.726;23.342;2024-01-30T12:41:06;10.97;;;9.47;;
6223;SDS011;3145;42.726;23.342;2024-01-30T12:43:35;7.03;;;6.50;;
6223;SDS011;3145;42.726;23.342;2024-01-30T12:46:02;21.13;;;12.57;;
6223;SDS011;3145;42.726;23.342;2024-01-30T12:48:29;10.33;;;9.30;;
6223;SDS011;3145;42.726;23.342;2024-01-30T12:50:56;8.40;;;7.80;;
6223;SDS011;3145;42.726;23.342;2024-01-30T12:53:24;8.60;;;7.87;;
6223;SDS011;3145;42.726;23.342;2024-01-30T12:55:51;8.00;;;7.43;;
6223;SDS011;3145;42.726;23.342;2024-01-30T12:58:19;7.97;;;7.37;;
6223;SDS011;3145;42.726;23.342;2024-01-30T13:00:46;11.20;;;9.80;;
6223;SDS011;3145;42.726;23.342;2024-01-30T13:03:13;10.40;;;8.10;;
6223;SDS011;3145;42.726;23.342;2024-01-30T13:05:39;10.00;;;8.40;;
6223;SDS011;3145;42.726;23.342;2024-01-30T13:08:06;10.03;;;8.30;;
6223;SDS011;3145;42.726;23.342;2024-01-30T13:10:34;13.80;;;9.40;;
6223;SDS011;3145;42.726;23.342;2024-01-30T13:13:01;10.10;;;9.17;;
6223;SDS011;3145;42.726;23.342;2024-01-30T13:15:27;9.47;;;7.17;;
6223;SDS011;3145;42.726;23.342;2024-01-30T13:17:54;9.30;;;8.40;;
6223;SDS011;3145;42.726;23.342;2024-01-30T13:20:21;9.73;;;8.83;;
6223;SDS011;3145;42.726;23.342;2024-01-30T13:22:47;11.80;;;9.93;;
6223;SDS011;3145;42.726;23.342;2024-01-30T13:25:15;8.40;;;7.70;;
6223;SDS011;3145;42.726;23.342;2024-01-30T13:27:43;9.77;;;8.87;;
6223;SDS011;3145;42.726;23.342;2024-01-30T13:30:10;8.23;;;7.53;;
6223;SDS011;3145;42.726;23.342;2024-01-30T13:32:38;10.47;;;8.90;;
6223;SDS011;3145;42.726;23.342;2024-01-30T13:35:06;11.63;;;9.80;;
6223;SDS011;3145;42.726;23.342;2024-01-30T13:37:32;7.27;;;6.63;;
6223;SDS011;3145;42.726;23.342;2024-01-30T13:39:59;11.63;;;7.87;;
6223;SDS011;3145;42.726;23.342;2024-01-30T13:42:26;10.93;;;9.70;;
6223;SDS011;3145;42.726;23.342;2024-01-30T13:44:54;9.83;;;8.90;;
6223;SDS011;3145;42.726;23.342;2024-01-30T13:47:20;8.57;;;7.70;;
6223;SDS011;3145;42.726;23.342;2024-01-30T13:49:47;8.20;;;7.53;;
6223;SDS011;3145;42.726;23.342;2024-01-30T13:52:14;7.27;;;6.63;;
6223;SDS011;3145;42.726;23.342;2024-01-30T13:54:41;6.83;;;6.40;;
6223;SDS011;3145;42.726;23.342;2024-01-30T13:57:08;7.70;;;7.20;;
6223;SDS011;3145;42.726;23.342;2024-01-30T13:59:35;8.40;;;7.80;;
6223;SDS011;3145;42.726;23.342;2024-01-30T14:02:03;9.33;;;8.37;;
6223;SDS011;3145;42.726;23.342;2024-01-30T14:04:30;7.87;;;7.37;;
6223;SDS011;3145;42.726;23.342;2024-01-30T14:06:57;6.77;;;6.23;;
6223;SDS011;3145;42.726;23.342;2024-01-30T14:09:24;8.33;;;7.70;;
6223;SDS011;3145;42.726;23.342;2024-01-30T14:11:51;8.70;;;8.00;;
6223;SDS011;3145;42.726;23.342;2024-01-30T14:14:17;8.47;;;7.77;;
6223;SDS011;3145;42.726;23.342;2024-01-30T14:16:44;16.00;;;9.83;;
6223;SDS011;3145;42.726;23.342;2024-01-30T14:19:12;17.60;;;11.10;;
6223;SDS011;3145;42.726;23.342;2024-01-30T14:21:39;10.90;;;9.43;;
6223;SDS011;3145;42.726;23.342;2024-01-30T14:24:06;13.07;;;9.97;;
6223;SDS011;3145;42.726;23.342;2024-01-30T14:26:32;11.40;;;10.23;;
6223;SDS011;3145;42.726;23.342;2024-01-30T14:28:59;9.83;;;8.80;;
6223;SDS011;3145;42.726;23.342;2024-01-30T14:31:26;10.70;;;9.53;;
6223;SDS011;3145;42.726;23.342;2024-01-30T14:33:52;8.23;;;7.50;;
6223;SDS011;3145;42.726;23.342;2024-01-30T14:36:21;10.20;;;9.30;;
6223;SDS011;3145;42.726;23.342;2024-01-30T14:38:52;13.37;;;10.00;;
6223;SDS011;3145;42.726;23.342;2024-01-30T14:41:20;12.00;;;8.77;;
6223;SDS011;3145;42.726;23.342;2024-01-30T14:43:46;10.50;;;9.50;;
6223;SDS011;3145;42.726;23.342;2024-01-30T14:46:13;10.77;;;9.67;;
6223;SDS011;3145;42.726;23.342;2024-01-30T14:48:40;11.97;;;10.67;;
6223;SDS011;3145;42.726;23.342;2024-01-30T14:51:06;8.83;;;8.03;;